createdAt,value
2023-05-10T00:00:11.087Z,2.30
2023-05-10T00:03:19.380Z,2.10
2023-05-10T00:06:21.705Z,2.17
2023-05-10T00:09:23.992Z,2.20
2023-05-10T00:12:26.283Z,2.38
2023-05-10T00:15:33.917Z,2.22
2023-05-10T00:18:36.226Z,2.10
2023-05-10T00:21:38.449Z,2.20
2023-05-10T00:24:40.903Z,2.35
2023-05-10T00:27:45.356Z,2.28
2023-05-10T00:30:50.354Z,2.03
2023-05-10T00:33:55.453Z,2.10
2023-05-10T00:37:04.994Z,2.38
2023-05-10T00:40:12.964Z,2.35
2023-05-10T00:43:16.913Z,2.25
2023-05-10T00:46:19.513Z,2.53
2023-05-10T00:49:22.242Z,2.42
2023-05-10T00:52:31.131Z,1.73
2023-05-10T00:55:37.411Z,2.72
2023-05-10T00:58:42.732Z,2.63
2023-05-10T01:01:50.743Z,2.60
2023-05-10T01:04:53.341Z,3.20
2023-05-10T01:07:55.722Z,2.35
2023-05-10T01:11:00.650Z,2.45
2023-05-10T01:14:04.845Z,2.35
2023-05-10T01:17:08.641Z,2.58
2023-05-10T01:20:12.897Z,2.80
2023-05-10T01:23:38.690Z,2.55
2023-05-10T01:26:50.133Z,2.45
2023-05-10T01:30:21.854Z,2.28
2023-05-10T01:33:25.820Z,2.78
2023-05-10T01:36:31.861Z,2.22
2023-05-10T01:39:34.045Z,2.67
2023-05-10T01:42:51.077Z,2.80
2023-05-10T01:46:01.024Z,2.72
2023-05-10T01:49:08.598Z,2.92
2023-05-10T01:52:16.891Z,2.50
2023-05-10T01:55:24.434Z,2.58
2023-05-10T01:58:31.512Z,2.47
2023-05-10T02:01:35.163Z,2.65
2023-05-10T02:04:39.592Z,2.58
2023-05-10T02:07:45.735Z,2.80
2023-05-10T02:10:50.214Z,2.42
2023-05-10T02:13:53.948Z,2.97
2023-05-10T02:17:03.002Z,2.67
2023-05-10T02:20:08.822Z,2.60
2023-05-10T02:23:14.416Z,2.80
2023-05-10T02:29:24.633Z,2.35
2023-05-10T02:32:28.927Z,2.35
2023-05-10T02:35:34.530Z,2.92
2023-05-10T02:38:42.706Z,2.88
2023-05-10T02:41:53.430Z,2.22
2023-05-10T02:45:02.705Z,2.15
2023-05-10T02:48:05.970Z,2.53
2023-05-10T02:51:09.168Z,1.98
2023-05-10T02:54:21.323Z,2.60
2023-05-10T02:57:28.658Z,2.60
2023-05-10T03:00:31.837Z,2.55
2023-05-10T03:03:34.386Z,2.60
2023-05-10T03:06:36.919Z,2.30
2023-05-10T03:09:43.513Z,2.88
2023-05-10T03:13:11.376Z,2.55
2023-05-10T03:16:30.344Z,2.78
2023-05-10T03:19:52.530Z,2.80
2023-05-10T03:23:02.825Z,2.08
2023-05-10T03:26:06.997Z,2.65
2023-05-10T03:29:10.146Z,2.60
2023-05-10T03:32:12.536Z,2.67
2023-05-10T03:35:15.295Z,3.00
2023-05-10T03:38:18.503Z,2.70
2023-05-10T03:41:22.326Z,2.58
2023-05-10T03:44:24.610Z,3.13
2023-05-10T03:47:30.807Z,2.85
2023-05-10T03:50:38.476Z,3.10
2023-05-10T03:53:43.622Z,2.60
2023-05-10T03:56:47.575Z,2.78
2023-05-10T03:59:51.160Z,2.88
2023-05-10T04:02:53.668Z,2.78
2023-05-10T04:06:03.332Z,3.13
2023-05-10T04:09:05.706Z,3.00
2023-05-10T04:12:10.755Z,3.10
2023-05-10T04:15:13.287Z,2.90
2023-05-10T04:18:15.557Z,2.40
2023-05-10T04:21:17.845Z,2.97
2023-05-10T04:24:20.192Z,2.80
2023-05-10T04:27:22.552Z,2.85
2023-05-10T04:30:26.103Z,3.05
2023-05-10T04:33:30.714Z,3.17
2023-05-10T04:36:36.861Z,3.35
2023-05-10T04:39:42.442Z,3.08
2023-05-10T04:42:45.190Z,2.90
2023-05-10T04:45:51.279Z,3.13
2023-05-10T04:48:53.824Z,3.13
2023-05-10T04:51:56.542Z,3.30
2023-05-10T04:55:01.154Z,3.10
2023-05-10T04:58:05.971Z,2.90
2023-05-10T05:01:09.437Z,3.20
2023-05-10T05:04:11.971Z,3.25
2023-05-10T05:07:15.907Z,2.83
2023-05-10T05:10:20.734Z,2.88
2023-05-10T05:13:27.752Z,3.25
2023-05-10T05:16:32.074Z,3.30
2023-05-10T05:19:34.506Z,3.13
2023-05-10T05:22:38.268Z,3.63
2023-05-10T05:25:40.528Z,3.17
2023-05-10T05:28:45.218Z,3.17
2023-05-10T05:31:47.522Z,3.47
2023-05-10T05:34:53.162Z,2.65
2023-05-10T05:37:55.452Z,3.60
2023-05-10T05:40:57.868Z,3.20
2023-05-10T05:44:02.832Z,3.38
2023-05-10T05:47:05.255Z,3.13
2023-05-10T05:50:07.966Z,3.40
2023-05-10T05:53:10.876Z,3.30
2023-05-10T05:56:15.420Z,2.92
2023-05-10T05:59:20.051Z,2.70
2023-05-10T06:02:22.450Z,3.50
2023-05-10T06:05:24.735Z,3.10
2023-05-10T06:08:31.642Z,3.30
2023-05-10T06:11:36.256Z,3.10
2023-05-10T06:14:40.863Z,3.35
2023-05-10T06:17:50.338Z,3.17
2023-05-10T06:20:52.786Z,3.47
2023-05-10T06:23:57.848Z,3.60
2023-05-10T06:27:01.388Z,3.20
2023-05-10T06:30:12.487Z,3.58
2023-05-10T06:33:17.816Z,3.05
2023-05-10T06:36:20.111Z,4.20
2023-05-10T06:39:22.522Z,3.45
2023-05-10T06:42:26.444Z,3.63
2023-05-10T06:45:30.886Z,3.58
2023-05-10T06:48:35.754Z,4.15
2023-05-10T06:51:38.205Z,3.45
2023-05-10T06:54:40.465Z,3.42
2023-05-10T06:57:43.024Z,3.58
2023-05-10T07:00:50.189Z,3.40
2023-05-10T07:03:54.214Z,3.00
2023-05-10T07:06:58.895Z,3.58
2023-05-10T07:10:03.619Z,4.00
2023-05-10T07:13:06.082Z,3.45
2023-05-10T07:16:13.450Z,3.45
2023-05-10T07:19:15.885Z,3.65
2023-05-10T07:22:18.569Z,3.53
2023-05-10T07:25:23.041Z,3.30
2023-05-10T07:28:30.079Z,3.45
2023-05-10T07:31:32.471Z,3.33
2023-05-10T07:34:35.020Z,3.42
2023-05-10T07:37:40.585Z,2.85
2023-05-10T07:40:45.374Z,3.20
2023-05-10T07:43:54.900Z,3.10
2023-05-10T07:47:02.049Z,3.42
2023-05-10T07:50:07.348Z,2.53
2023-05-10T07:53:11.878Z,2.90
2023-05-10T07:56:30.710Z,3.10
2023-05-10T07:59:34.055Z,2.53
2023-05-10T08:02:38.660Z,3.15
2023-05-10T08:05:41.545Z,3.13
2023-05-10T08:08:46.622Z,3.28
2023-05-10T08:11:48.814Z,2.70
2023-05-10T08:14:51.342Z,3.08
2023-05-10T08:17:53.797Z,2.80
2023-05-10T08:20:58.415Z,2.75
2023-05-10T08:24:00.732Z,3.10
2023-05-10T08:27:03.204Z,2.95
2023-05-10T08:30:06.202Z,3.60
2023-05-10T08:33:08.595Z,2.47
2023-05-10T08:36:16.209Z,3.00
2023-05-10T08:39:29.701Z,2.45
2023-05-10T08:42:37.165Z,2.53
2023-05-10T08:45:43.830Z,2.92
2023-05-10T08:48:49.778Z,2.55
2023-05-10T08:51:56.907Z,2.88
2023-05-10T08:55:01.932Z,2.67
2023-05-10T08:58:07.701Z,2.97
2023-05-10T09:01:13.734Z,2.83
2023-05-10T09:04:18.760Z,2.70
2023-05-10T09:10:27.018Z,2.92
2023-05-10T09:13:29.614Z,2.88
2023-05-10T09:16:31.942Z,2.95
2023-05-10T09:19:36.520Z,3.10
2023-05-10T09:22:41.197Z,3.25
2023-05-10T09:25:43.649Z,2.80
2023-05-10T09:28:59.851Z,2.67
2023-05-10T09:32:05.257Z,2.88
2023-05-10T09:35:16.655Z,2.90
2023-05-10T09:38:19.266Z,3.17
2023-05-10T09:41:24.510Z,2.83
2023-05-10T09:44:27.480Z,2.65
2023-05-10T09:47:38.454Z,2.75
2023-05-10T09:50:41.366Z,3.05
2023-05-10T09:53:44.506Z,2.63
2023-05-10T09:56:49.614Z,3.42
2023-05-10T09:59:55.301Z,3.08
2023-05-10T10:02:59.635Z,2.80
2023-05-10T10:06:01.961Z,2.35
2023-05-10T10:09:07.064Z,2.95
2023-05-10T10:12:11.617Z,2.90
2023-05-10T10:15:17.091Z,2.78
2023-05-10T10:18:28.069Z,2.33
2023-05-10T10:21:30.508Z,2.42
2023-05-10T10:24:35.179Z,2.72
2023-05-10T10:27:43.427Z,2.38
2023-05-10T10:30:52.377Z,2.47
2023-05-10T10:34:08.658Z,2.78
2023-05-10T10:37:11.244Z,2.55
2023-05-10T10:40:27.860Z,2.10
2023-05-10T10:43:32.628Z,1.90
2023-05-10T10:46:35.596Z,2.08
2023-05-10T10:50:01.183Z,2.25
2023-05-10T10:53:13.140Z,2.35
2023-05-10T10:56:24.738Z,2.00
2023-05-10T10:59:31.453Z,2.05
2023-05-10T11:02:49.965Z,2.00
2023-05-10T11:06:02.855Z,2.10
2023-05-10T11:09:09.791Z,1.90
2023-05-10T11:12:12.161Z,2.05
2023-05-10T11:15:14.711Z,2.03
2023-05-10T11:18:17.886Z,2.30
2023-05-10T11:21:25.485Z,2.55
2023-05-10T11:24:29.181Z,2.05
2023-05-10T11:27:38.634Z,1.80
2023-05-10T11:30:48.132Z,2.10
2023-05-10T11:33:55.307Z,1.83
2023-05-10T11:36:58.603Z,2.20
2023-05-10T11:40:01.416Z,1.92
2023-05-10T11:43:04.749Z,2.20
2023-05-10T11:46:13.020Z,2.13
2023-05-10T11:49:18.769Z,2.00
2023-05-10T11:52:23.367Z,2.30
2023-05-10T11:55:25.899Z,2.03
2023-05-10T11:58:28.387Z,2.00
2023-05-10T12:01:37.150Z,2.10
2023-05-10T12:04:39.629Z,1.92
2023-05-10T12:07:41.941Z,2.05
2023-05-10T12:10:46.526Z,2.08
2023-05-10T12:13:51.545Z,2.38
2023-05-10T12:16:53.893Z,1.67
2023-05-10T12:20:16.152Z,1.83
2023-05-10T12:23:18.869Z,1.90
2023-05-10T12:26:29.821Z,1.75
2023-05-10T12:29:35.724Z,2.13
2023-05-10T12:32:44.282Z,1.85
2023-05-10T12:35:57.381Z,1.88
2023-05-10T12:39:05.939Z,1.83
2023-05-10T12:42:10.632Z,1.80
2023-05-10T12:45:18.814Z,1.65
2023-05-10T12:48:21.366Z,2.55
2023-05-10T12:51:26.426Z,2.00
2023-05-10T12:54:28.927Z,1.80
2023-05-10T12:57:31.666Z,1.80
2023-05-10T13:00:34.028Z,1.30
2023-05-10T13:03:41.478Z,1.60
2023-05-10T13:06:43.957Z,1.60
2023-05-10T13:09:46.248Z,1.77
2023-05-10T13:12:48.449Z,1.70
2023-05-10T13:15:53.153Z,1.75
2023-05-10T13:18:55.546Z,1.40
2023-05-10T13:22:02.993Z,1.50
2023-05-10T13:25:05.770Z,1.48
2023-05-10T13:28:10.636Z,1.35
2023-05-10T13:31:17.669Z,1.73
2023-05-10T13:34:22.704Z,1.60
2023-05-10T13:37:25.015Z,1.73
2023-05-10T13:40:27.318Z,1.50
2023-05-10T13:43:30.478Z,1.80
2023-05-10T13:46:35.004Z,1.48
2023-05-10T13:49:41.961Z,1.65
2023-05-10T13:52:44.301Z,1.67
2023-05-10T13:55:48.856Z,1.50
2023-05-10T13:58:51.193Z,1.70
2023-05-10T14:01:53.651Z,1.48
2023-05-10T14:04:58.041Z,1.30
2023-05-10T14:08:02.483Z,1.33
2023-05-10T14:11:09.472Z,1.80
2023-05-10T14:14:11.776Z,1.50
2023-05-10T14:17:18.531Z,1.40
2023-05-10T14:20:20.843Z,1.58
2023-05-10T14:23:26.799Z,1.30
2023-05-10T14:26:31.665Z,1.63
2023-05-10T14:29:33.996Z,1.58
2023-05-10T14:32:37.672Z,1.25
2023-05-10T14:35:40.789Z,1.13
2023-05-10T14:38:50.481Z,1.73
2023-05-10T14:41:55.504Z,1.50
2023-05-10T14:44:57.953Z,1.73
2023-05-10T14:48:05.487Z,1.52
2023-05-10T14:51:10.297Z,1.60
2023-05-10T14:54:15.296Z,1.70
2023-05-10T14:57:17.714Z,1.35
2023-05-10T15:00:21.787Z,1.48
2023-05-10T15:03:27.208Z,1.42
2023-05-10T15:09:40.889Z,1.15
2023-05-10T15:12:45.759Z,1.40
2023-05-10T15:15:50.860Z,1.45
2023-05-10T15:18:58.759Z,1.42
2023-05-10T15:22:01.256Z,1.33
2023-05-10T15:25:05.743Z,1.60
2023-05-10T15:28:12.716Z,2.40
2023-05-10T15:31:17.076Z,1.50
2023-05-10T15:37:25.453Z,1.60
2023-05-10T15:40:27.730Z,1.63
2023-05-10T15:43:30.003Z,1.45
2023-05-10T15:46:32.315Z,1.13
2023-05-10T15:49:37.048Z,1.40
2023-05-10T15:52:39.492Z,1.50
2023-05-10T15:55:41.758Z,1.40
2023-05-10T15:58:46.544Z,1.50
2023-05-10T16:01:51.979Z,1.83
2023-05-10T16:04:54.218Z,1.33
2023-05-10T16:07:56.910Z,1.48
2023-05-10T16:11:01.589Z,1.35
2023-05-10T16:14:07.302Z,1.27
2023-05-10T16:17:10.006Z,1.30
2023-05-10T16:20:14.755Z,2.13
2023-05-10T16:23:19.744Z,1.50
2023-05-10T16:26:24.410Z,1.60
2023-05-10T16:29:29.061Z,1.40
2023-05-10T16:32:31.417Z,1.98
2023-05-10T16:35:36.001Z,1.50
2023-05-10T16:38:38.489Z,1.73
2023-05-10T16:41:43.778Z,1.88
2023-05-10T16:47:50.586Z,1.77
2023-05-10T16:50:52.888Z,1.83
2023-05-10T16:53:56.094Z,2.10
2023-05-10T16:56:58.369Z,1.73
2023-05-10T17:00:02.713Z,1.77
2023-05-10T17:03:07.769Z,1.75
2023-05-10T17:06:14.060Z,2.13
2023-05-10T17:09:17.578Z,1.90
2023-05-10T17:12:28.139Z,1.73
2023-05-10T17:15:32.664Z,1.77
2023-05-10T17:18:39.711Z,1.70
2023-05-10T17:21:42.065Z,1.80
2023-05-10T17:24:45.859Z,1.95
2023-05-10T17:27:53.216Z,1.77
2023-05-10T17:30:58.534Z,1.77
2023-05-10T17:34:05.443Z,1.67
2023-05-10T17:37:12.174Z,3.42
2023-05-10T17:40:18.248Z,2.50
2023-05-10T17:43:21.514Z,2.17
2023-05-10T17:46:26.581Z,2.03
2023-05-10T17:49:28.909Z,1.88
2023-05-10T17:52:33.920Z,1.85
2023-05-10T17:55:39.280Z,2.28
2023-05-10T18:01:46.573Z,1.90
2023-05-10T18:04:49.531Z,1.98
2023-05-10T18:07:54.349Z,2.00
2023-05-10T18:10:59.270Z,2.33
2023-05-10T18:14:04.924Z,2.08
2023-05-10T18:17:07.837Z,2.30
2023-05-10T18:20:10.707Z,1.80
2023-05-10T18:23:13.301Z,1.90
2023-05-10T18:26:18.599Z,2.20
2023-05-10T18:29:24.295Z,1.92
2023-05-10T18:32:29.166Z,1.70
2023-05-10T18:35:36.496Z,2.72
2023-05-10T18:38:41.320Z,2.25
2023-05-10T18:41:44.727Z,2.10
2023-05-10T18:44:49.525Z,1.80
2023-05-10T18:47:53.405Z,2.38
2023-05-10T18:50:55.791Z,2.05
2023-05-10T18:54:03.543Z,1.92
2023-05-10T18:57:08.305Z,2.10
2023-05-10T19:00:14.041Z,1.73
2023-05-10T19:03:21.214Z,1.80
2023-05-10T19:06:23.548Z,2.10
2023-05-10T19:09:27.761Z,1.98
2023-05-10T19:12:30.578Z,1.67
2023-05-10T19:15:37.469Z,1.80
2023-05-10T19:18:44.134Z,1.83
2023-05-10T19:21:48.358Z,1.95
2023-05-10T19:24:50.678Z,1.83
2023-05-10T19:27:58.000Z,2.30
2023-05-10T19:31:00.452Z,2.47
2023-05-10T19:34:04.217Z,2.13
2023-05-10T19:37:08.801Z,1.95
2023-05-10T19:40:11.476Z,2.08
2023-05-10T19:43:13.851Z,2.08
2023-05-10T19:46:17.915Z,1.95
2023-05-10T19:49:27.392Z,1.70
2023-05-10T19:52:32.234Z,1.70
2023-05-10T19:55:37.359Z,1.88
2023-05-10T19:58:44.913Z,1.95
2023-05-10T20:01:47.213Z,1.85
2023-05-10T20:04:50.077Z,2.08
2023-05-10T20:07:53.471Z,1.58
2023-05-10T20:10:59.029Z,1.90
2023-05-10T20:14:08.404Z,3.10
2023-05-10T20:17:10.833Z,1.70
2023-05-10T20:20:17.164Z,2.22
2023-05-10T20:23:19.588Z,2.40
2023-05-10T20:26:22.003Z,1.77
2023-05-10T20:29:24.254Z,1.92
2023-05-10T20:32:29.104Z,1.80
2023-05-10T20:35:34.276Z,1.77
2023-05-10T20:38:36.878Z,2.10
2023-05-10T20:41:42.017Z,1.85
2023-05-10T20:44:44.249Z,1.80
2023-05-10T20:47:52.365Z,2.15
2023-05-10T20:50:57.214Z,2.53
2023-05-10T20:54:02.565Z,2.10
2023-05-10T20:57:04.998Z,2.20
2023-05-10T21:00:11.012Z,2.22
2023-05-10T21:03:18.196Z,1.65
2023-05-10T21:06:20.526Z,1.80
2023-05-10T21:09:25.307Z,2.25
2023-05-10T21:12:27.520Z,1.60
2023-05-10T21:15:29.794Z,2.10
2023-05-10T21:18:34.344Z,1.77
2023-05-10T21:21:36.599Z,2.08
2023-05-10T21:24:39.235Z,2.03
2023-05-10T21:27:47.252Z,1.80
2023-05-10T21:30:49.970Z,2.10
2023-05-10T21:33:52.200Z,2.00
2023-05-10T21:36:54.626Z,2.00
2023-05-10T21:39:57.012Z,2.20
2023-05-10T21:42:59.441Z,1.80
2023-05-10T21:46:04.726Z,1.77
2023-05-10T21:49:09.649Z,1.85
2023-05-10T21:52:16.472Z,2.13
2023-05-10T21:55:26.522Z,1.90
2023-05-10T21:58:31.431Z,1.83
2023-05-10T22:01:36.083Z,1.75
2023-05-10T22:04:38.405Z,1.90
2023-05-10T22:07:40.709Z,1.88
2023-05-10T22:10:43.145Z,2.05
2023-05-10T22:13:47.677Z,1.75
2023-05-10T22:16:49.977Z,1.92
2023-05-10T22:19:52.356Z,2.03
2023-05-10T22:22:55.188Z,2.08
2023-05-10T22:26:04.159Z,1.80
2023-05-10T22:29:09.260Z,1.90
2023-05-10T22:32:11.522Z,2.28
2023-05-10T22:35:13.825Z,2.13
2023-05-10T22:38:16.265Z,2.33
2023-05-10T22:41:18.662Z,2.53
2023-05-10T22:44:20.943Z,1.95
2023-05-10T22:47:23.176Z,2.10
2023-05-10T22:50:25.482Z,1.92
2023-05-10T22:53:33.396Z,2.15
2023-05-10T22:56:35.874Z,1.98
2023-05-10T22:59:38.166Z,2.08
2023-05-10T23:02:43.199Z,2.40
2023-05-10T23:05:45.497Z,1.90
2023-05-10T23:08:48.150Z,2.10
2023-05-10T23:11:53.395Z,2.20
2023-05-10T23:14:56.568Z,2.17
2023-05-10T23:18:01.785Z,2.30
2023-05-10T23:21:04.208Z,2.20
2023-05-10T23:24:11.685Z,2.10
2023-05-10T23:27:16.918Z,2.00
2023-05-10T23:30:19.560Z,1.65
2023-05-10T23:33:22.398Z,1.98
2023-05-10T23:36:24.625Z,1.98
2023-05-10T23:39:29.121Z,2.20
2023-05-10T23:42:34.950Z,2.20
2023-05-10T23:45:37.264Z,2.55
2023-05-10T23:48:39.886Z,2.05
2023-05-10T23:51:42.237Z,2.30
2023-05-10T23:54:45.959Z,2.00
2023-05-10T23:57:48.323Z,2.00
